Time,TemperatureF,DewpointF,PressureIn,WindDirection,WindDirectionDegrees,WindSpeedMPH,WindSpeedGustMPH,Humidity,HourlyPrecipIn,Conditions,Clouds,dailyrainin,SoftwareType,DateUTC
2013-01-31 00:03:00,38.7,36.9,30.31,WSW,238,0.0,0.0,93,0.00,CLR,CLR,0.00,WeatherDisplay:10.37,2013-01-31 08:03:00,
2013-01-31 00:08:00,38.6,36.8,30.31,WSW,239,0.0,0.0,93,0.00,CLR,CLR,0.00,WeatherDisplay:10.37,2013-01-31 08:08:00,
2013-01-31 00:13:00,38.5,36.7,30.31,WSW,239,0.0,0.0,93,0.00,CLR,CLR,0.00,WeatherDisplay:10.37,2013-01-31 08:13:00,
2013-01-31 00:18:00,38.4,36.6,30.31,WSW,239,0.0,0.0,93,0.00,CLR,CLR,0.00,WeatherDisplay:10.37,2013-01-31 08:18:00,
2013-01-31 00:23:00,38.4,36.8,30.30,WSW,239,0.0,0.0,94,0.00,CLR,CLR,0.00,WeatherDisplay:10.37,2013-01-31 08:23:00,
2013-01-31 00:29:00,38.5,36.7,30.31,WSW,239,0.0,0.0,93,0.00,CLR,CLR,0.00,WeatherDisplay:10.37,2013-01-31 08:29:00,
2013-01-31 00:34:00,38.3,36.2,30.30,WSW,239,0.0,0.0,92,0.00,CLR,CLR,0.00,WeatherDisplay:10.37,2013-01-31 08:34:00,
2013-01-31 00:39:00,37.9,35.8,30.30,WSW,239,0.0,0.0,92,0.00,CLR,CLR,0.00,WeatherDisplay:10.37,2013-01-31 08:39:00,
2013-01-31 00:44:00,37.7,35.9,30.30,WSW,239,0.0,0.0,93,0.00,CLR,CLR,0.00,WeatherDisplay:10.37,2013-01-31 08:44:00,
2013-01-31 00:50:00,37.8,36.2,30.30,WSW,239,0.0,0.0,94,0.00,CLR,CLR,0.00,WeatherDisplay:10.37,2013-01-31 08:50:00,
2013-01-31 00:55:00,38.0,36.7,30.30,WSW,238,0.0,0.0,95,0.00,CLR,CLR,0.00,WeatherDisplay:10.37,2013-01-31 08:55:00,
2013-01-31 01:00:00,37.9,36.1,30.30,WSW,239,0.0,0.0,93,0.00,CLR,CLR,0.00,WeatherDisplay:10.37,2013-01-31 09:00:00,
2013-01-31 01:05:00,37.8,36.0,30.29,WSW,238,0.0,0.0,93,0.00,CLR,CLR,0.00,WeatherDisplay:10.37,2013-01-31 09:05:00,
2013-01-31 01:11:00,37.6,35.8,30.29,WSW,239,0.0,0.0,93,0.00,CLR,CLR,0.00,WeatherDisplay:10.37,2013-01-31 09:11:00,
2013-01-31 01:16:00,37.4,35.6,30.30,WSW,238,0.0,0.0,93,0.00,CLR,CLR,0.00,WeatherDisplay:10.37,2013-01-31 09:16:00,
2013-01-31 01:21:00,37.2,35.4,30.30,WSW,238,0.0,0.0,93,0.00,CLR,CLR,0.00,WeatherDisplay:10.37,2013-01-31 09:21:00,
2013-01-31 01:26:00,37.2,35.6,30.30,WSW,238,0.0,0.0,94,0.00,CLR,CLR,0.00,WeatherDisplay:10.37,2013-01-31 09:26:00,
2013-01-31 01:31:00,37.1,35.5,30.30,WSW,238,0.0,0.0,94,0.00,CLR,CLR,0.00,WeatherDisplay:10.37,2013-01-31 09:31:00,
2013-01-31 01:36:00,37.1,35.5,30.30,WSW,238,0.0,0.0,94,0.00,CLR,CLR,0.00,WeatherDisplay:10.37,2013-01-31 09:36:00,
2013-01-31 01:42:00,36.9,35.1,30.30,WSW,239,0.0,0.0,93,0.00,CLR,CLR,0.00,WeatherDisplay:10.37,2013-01-31 09:42:00,
2013-01-31 01:47:00,36.8,35.2,30.29,WSW,238,0.0,0.0,94,0.00,CLR,CLR,0.00,WeatherDisplay:10.37,2013-01-31 09:47:00,
2013-01-31 01:52:00,36.7,35.1,30.29,WSW,239,0.0,0.0,94,0.00,CLR,CLR,0.00,WeatherDisplay:10.37,2013-01-31 09:52:00,
2013-01-31 01:57:00,36.7,35.4,30.29,WSW,239,0.0,0.0,95,0.00,CLR,CLR,0.00,WeatherDisplay:10.37,2013-01-31 09:57:00,
2013-01-31 02:02:00,36.6,35.0,30.29,WSW,239,0.0,0.0,94,0.00,CLR,CLR,0.00,WeatherDisplay:10.37,2013-01-31 10:02:00,
2013-01-31 02:07:00,36.5,34.9,30.29,WSW,238,0.0,0.0,94,0.00,CLR,CLR,0.00,WeatherDisplay:10.37,2013-01-31 10:07:00,
2013-01-31 02:12:00,36.3,34.7,30.29,WSW,239,0.0,0.0,94,0.00,CLR,CLR,0.00,WeatherDisplay:10.37,2013-01-31 10:12:00,
2013-01-31 02:18:00,36.3,35.0,30.29,WSW,238,0.0,0.0,95,0.00,CLR,CLR,0.00,WeatherDisplay:10.37,2013-01-31 10:18:00,
2013-01-31 02:23:00,36.3,35.0,30.28,WSW,239,0.0,0.0,95,0.00,CLR,CLR,0.00,WeatherDisplay:10.37,2013-01-31 10:23:00,
2013-01-31 02:28:00,36.3,34.7,30.28,WSW,239,0.0,0.0,94,0.00,CLR,CLR,0.00,WeatherDisplay:10.37,2013-01-31 10:28:00,
2013-01-31 02:33:00,36.2,34.9,30.28,WSW,238,0.0,0.0,95,0.00,CLR,CLR,0.00,WeatherDisplay:10.37,2013-01-31 10:33:00,
2013-01-31 02:39:00,36.1,34.5,30.28,WSW,238,0.0,0.0,94,0.00,CLR,CLR,0.00,WeatherDisplay:10.37,2013-01-31 10:39:00,
2013-01-31 02:44:00,35.8,34.2,30.28,WSW,239,0.0,0.0,94,0.00,CLR,CLR,0.00,WeatherDisplay:10.37,2013-01-31 10:44:00,
2013-01-31 02:49:00,35.8,34.5,30.27,WSW,238,0.0,0.0,95,0.00,CLR,CLR,0.00,WeatherDisplay:10.37,2013-01-31 10:49:00,
2013-01-31 02:54:00,35.8,34.5,30.27,WSW,239,0.0,0.0,95,0.00,CLR,CLR,0.00,WeatherDisplay:10.37,2013-01-31 10:54:00,
2013-01-31 03:00:00,35.7,34.1,30.27,WSW,238,0.0,0.0,94,0.00,CLR,CLR,0.00,WeatherDisplay:10.37,2013-01-31 11:00:00,
2013-01-31 03:05:00,35.5,33.9,30.27,WSW,238,0.0,0.0,94,0.00,CLR,CLR,0.00,WeatherDisplay:10.37,2013-01-31 11:05:00,
2013-01-31 03:10:00,35.5,34.2,30.27,WSW,239,0.0,0.0,95,0.00,CLR,CLR,0.00,WeatherDisplay:10.37,2013-01-31 11:10:00,
2013-01-31 03:15:00,35.4,34.1,30.27,WSW,239,0.0,0.0,95,0.00,CLR,CLR,0.00,WeatherDisplay:10.37,2013-01-31 11:15:00,
2013-01-31 03:21:00,35.4,34.1,30.27,WSW,238,0.0,0.0,95,0.00,CLR,CLR,0.00,WeatherDisplay:10.37,2013-01-31 11:21:00,
2013-01-31 03:26:00,35.4,34.1,30.27,WSW,239,0.0,0.0,95,0.00,CLR,CLR,0.00,WeatherDisplay:10.37,2013-01-31 11:26:00,
2013-01-31 03:31:00,35.3,34.0,30.27,WSW,238,0.0,0.0,95,0.00,CLR,CLR,0.00,WeatherDisplay:10.37,2013-01-31 11:31:00,
2013-01-31 03:36:00,35.2,33.6,30.26,WSW,239,0.0,0.0,94,0.00,CLR,CLR,0.00,WeatherDisplay:10.37,2013-01-31 11:36:00,
2013-01-31 03:41:00,35.0,33.4,30.26,WSW,239,0.0,0.0,94,0.00,CLR,CLR,0.00,WeatherDisplay:10.37,2013-01-31 11:41:00,
2013-01-31 03:47:00,34.9,33.6,30.26,WSW,238,0.0,0.0,95,0.00,CLR,CLR,0.00,WeatherDisplay:10.37,2013-01-31 11:47:00,
2013-01-31 03:52:00,35.0,34.0,30.26,WSW,239,0.0,0.0,96,0.00,CLR,CLR,0.00,WeatherDisplay:10.37,2013-01-31 11:52:00,
2013-01-31 03:57:00,35.0,33.7,30.26,WSW,239,0.0,0.0,95,0.00,CLR,CLR,0.00,WeatherDisplay:10.37,2013-01-31 11:57:00,
2013-01-31 04:02:00,34.9,33.6,30.26,WSW,238,0.0,0.0,95,0.00,CLR,CLR,0.00,WeatherDisplay:10.37,2013-01-31 12:02:00,
2013-01-31 04:07:00,34.8,33.5,30.26,WSW,239,0.0,0.0,95,0.00,CLR,CLR,0.00,WeatherDisplay:10.37,2013-01-31 12:07:00,
2013-01-31 04:12:00,34.8,33.5,30.25,WSW,238,0.0,0.0,95,0.00,CLR,CLR,0.00,WeatherDisplay:10.37,2013-01-31 12:12:00,
2013-01-31 04:17:00,34.9,33.9,30.25,WSW,238,0.0,0.0,96,0.00,CLR,CLR,0.00,WeatherDisplay:10.37,2013-01-31 12:17:00,
2013-01-31 04:22:00,34.9,33.9,30.25,WSW,239,0.0,0.0,96,0.00,CLR,CLR,0.00,WeatherDisplay:10.37,2013-01-31 12:22:00,
2013-01-31 04:28:00,34.9,33.9,30.25,WSW,239,0.0,0.0,96,0.00,CLR,CLR,0.00,WeatherDisplay:10.37,2013-01-31 12:28:00,
2013-01-31 04:33:00,34.8,33.5,30.25,WSW,239,0.0,0.0,95,0.00,CLR,CLR,0.00,WeatherDisplay:10.37,2013-01-31 12:33:00,
2013-01-31 04:38:00,34.6,33.3,30.25,WSW,239,0.0,0.0,95,0.00,CLR,CLR,0.00,WeatherDisplay:10.37,2013-01-31 12:38:00,
2013-01-31 04:43:00,34.5,33.2,30.25,WSW,239,0.0,0.0,95,0.00,CLR,CLR,0.00,WeatherDisplay:10.37,2013-01-31 12:43:00,
2013-01-31 04:49:00,34.5,33.2,30.25,WSW,238,0.0,0.0,95,0.00,CLR,CLR,0.00,WeatherDisplay:10.37,2013-01-31 12:49:00,
2013-01-31 04:54:00,34.5,33.2,30.25,WSW,238,0.0,0.0,95,0.00,CLR,CLR,0.00,WeatherDisplay:10.37,2013-01-31 12:54:00,
2013-01-31 04:59:00,34.3,33.0,30.25,WSW,239,0.0,0.0,95,0.00,CLR,CLR,0.00,WeatherDisplay:10.37,2013-01-31 12:59:00,
2013-01-31 05:04:00,34.1,32.8,30.25,WSW,238,0.0,0.0,95,0.00,CLR,CLR,0.00,WeatherDisplay:10.37,2013-01-31 13:04:00,
2013-01-31 05:09:00,34.0,32.7,30.25,WSW,238,0.0,0.0,95,0.00,CLR,CLR,0.00,WeatherDisplay:10.37,2013-01-31 13:09:00,
2013-01-31 05:14:00,34.1,33.1,30.25,WSW,239,0.0,0.0,96,0.00,CLR,CLR,0.00,WeatherDisplay:10.37,2013-01-31 13:14:00,
2013-01-31 05:19:00,34.2,33.2,30.25,WSW,239,0.0,0.0,96,0.00,CLR,CLR,0.00,WeatherDisplay:10.37,2013-01-31 13:19:00,
2013-01-31 05:25:00,34.3,33.3,30.25,WSW,238,0.0,0.0,96,0.00,CLR,CLR,0.00,WeatherDisplay:10.37,2013-01-31 13:25:00,
2013-01-31 05:30:00,34.3,33.3,30.25,WSW,239,0.0,0.0,96,0.00,CLR,CLR,0.00,WeatherDisplay:10.37,2013-01-31 13:30:00,
2013-01-31 05:35:00,34.0,32.7,30.25,WSW,239,0.0,0.0,95,0.00,CLR,CLR,0.00,WeatherDisplay:10.37,2013-01-31 13:35:00,
2013-01-31 05:40:00,33.9,32.6,30.25,WSW,239,0.0,0.0,95,0.00,CLR,CLR,0.00,WeatherDisplay:10.37,2013-01-31 13:40:00,
2013-01-31 05:46:00,33.8,32.5,30.25,WSW,239,0.0,0.0,95,0.00,CLR,CLR,0.00,WeatherDisplay:10.37,2013-01-31 13:46:00,
2013-01-31 05:51:00,34.1,33.1,30.25,WSW,239,0.0,1.0,96,0.00,CLR,CLR,0.00,WeatherDisplay:10.37,2013-01-31 13:51:00,
2013-01-31 05:56:00,34.5,33.7,30.25,WSW,238,0.0,0.0,97,0.00,CLR,CLR,0.00,WeatherDisplay:10.37,2013-01-31 13:56:00,
2013-01-31 06:01:00,34.6,33.6,30.25,WSW,238,0.0,0.0,96,0.00,CLR,CLR,0.00,WeatherDisplay:10.37,2013-01-31 14:01:00,
2013-01-31 06:06:00,34.6,33.6,30.25,WSW,239,0.0,0.0,96,0.00,CLR,CLR,0.00,WeatherDisplay:10.37,2013-01-31 14:06:00,
2013-01-31 06:11:00,34.4,33.4,30.25,WSW,239,0.0,0.0,96,0.00,CLR,CLR,0.00,WeatherDisplay:10.37,2013-01-31 14:11:00,
2013-01-31 06:16:00,34.2,32.9,30.25,WSW,239,0.0,0.0,95,0.00,CLR,CLR,0.00,WeatherDisplay:10.37,2013-01-31 14:16:00,
2013-01-31 06:22:00,34.1,32.8,30.25,WSW,239,0.0,0.0,95,0.00,CLR,CLR,0.00,WeatherDisplay:10.37,2013-01-31 14:22:00,
2013-01-31 06:27:00,34.0,33.0,30.25,WSW,239,0.0,0.0,96,0.00,CLR,CLR,0.00,WeatherDisplay:10.37,2013-01-31 14:27:00,
2013-01-31 06:32:00,34.0,33.0,30.25,WSW,239,0.0,0.0,96,0.00,CLR,CLR,0.00,WeatherDisplay:10.37,2013-01-31 14:32:00,
2013-01-31 06:37:00,33.9,32.9,30.25,WSW,238,0.0,0.0,96,0.00,CLR,CLR,0.00,WeatherDisplay:10.37,2013-01-31 14:37:00,
2013-01-31 06:42:00,33.9,32.9,30.25,WSW,239,0.0,0.0,96,0.00,CLR,CLR,0.00,WeatherDisplay:10.37,2013-01-31 14:42:00,
2013-01-31 06:48:00,33.8,32.8,30.25,WSW,239,0.0,0.0,96,0.00,CLR,CLR,0.00,WeatherDisplay:10.37,2013-01-31 14:48:00,
2013-01-31 06:53:00,33.6,32.3,30.25,WSW,239,0.0,0.0,95,0.00,CLR,CLR,0.00,WeatherDisplay:10.37,2013-01-31 14:53:00,
2013-01-31 06:58:00,33.6,32.6,30.25,WSW,239,0.0,0.0,96,0.00,CLR,CLR,0.00,WeatherDisplay:10.37,2013-01-31 14:58:00,
2013-01-31 07:03:00,33.5,32.5,30.25,WSW,238,0.0,0.0,96,0.00,CLR,CLR,0.00,WeatherDisplay:10.37,2013-01-31 15:03:00,
2013-01-31 07:08:00,33.6,32.6,30.26,WSW,238,0.0,0.0,96,0.00,CLR,CLR,0.00,WeatherDisplay:10.37,2013-01-31 15:08:00,
2013-01-31 07:14:00,33.7,32.7,30.26,WSW,239,0.0,0.0,96,0.00,CLR,CLR,0.00,WeatherDisplay:10.37,2013-01-31 15:14:00,
2013-01-31 07:19:00,33.6,32.6,30.26,WSW,239,0.0,0.0,96,0.00,CLR,CLR,0.00,WeatherDisplay:10.37,2013-01-31 15:19:00,
2013-01-31 07:24:00,33.5,32.5,30.26,WSW,239,0.0,0.0,96,0.00,CLR,CLR,0.00,WeatherDisplay:10.37,2013-01-31 15:24:00,
2013-01-31 07:29:00,33.5,32.5,30.26,WSW,239,0.0,0.0,96,0.00,CLR,CLR,0.00,WeatherDisplay:10.37,2013-01-31 15:29:00,
2013-01-31 07:34:00,33.6,32.6,30.26,WSW,238,0.0,0.0,96,0.00,CLR,CLR,0.00,WeatherDisplay:10.37,2013-01-31 15:34:00,
2013-01-31 07:39:00,34.2,33.4,30.26,WSW,238,1.1,0.0,97,0.00,CLR,CLR,0.00,WeatherDisplay:10.37,2013-01-31 15:39:00,
2013-01-31 07:45:00,34.8,34.0,30.26,WSW,239,0.0,0.0,97,0.00,CLR,CLR,0.00,WeatherDisplay:10.37,2013-01-31 15:45:00,
2013-01-31 07:50:00,35.2,34.4,30.26,WSW,239,0.0,0.0,97,0.00,CLR,CLR,0.00,WeatherDisplay:10.37,2013-01-31 15:50:00,
2013-01-31 07:55:00,36.3,35.8,30.26,WSW,239,0.0,0.0,98,0.00,CLR,CLR,0.00,WeatherDisplay:10.37,2013-01-31 15:55:00,
2013-01-31 08:00:00,37.3,36.8,30.27,WSW,239,1.1,0.0,98,0.00,CLR,CLR,0.00,WeatherDisplay:10.37,2013-01-31 16:00:00,
2013-01-31 08:05:00,38.3,37.8,30.27,WSW,239,0.0,0.0,98,0.00,CLR,CLR,0.00,WeatherDisplay:10.37,2013-01-31 16:05:00,
2013-01-31 08:11:00,39.2,38.7,30.27,WSW,239,0.0,0.0,98,0.00,CLR,CLR,0.00,WeatherDisplay:10.37,2013-01-31 16:11:00,
2013-01-31 08:16:00,40.0,39.5,30.27,WSW,239,0.0,0.0,98,0.00,CLR,CLR,0.00,WeatherDisplay:10.37,2013-01-31 16:16:00,
2013-01-31 08:21:00,40.4,39.6,30.27,WSW,239,0.0,0.0,97,0.00,CLR,CLR,0.00,WeatherDisplay:10.37,2013-01-31 16:21:00,
2013-01-31 08:26:00,40.4,39.1,30.27,WSW,239,0.0,0.0,95,0.00,CLR,CLR,0.00,WeatherDisplay:10.37,2013-01-31 16:26:00,
2013-01-31 08:31:00,40.7,39.6,30.27,WSW,239,0.0,0.0,96,0.00,CLR,CLR,0.00,WeatherDisplay:10.37,2013-01-31 16:31:00,
2013-01-31 08:37:00,41.2,40.1,30.27,WSW,239,0.0,0.0,96,0.00,CLR,CLR,0.00,WeatherDisplay:10.37,2013-01-31 16:37:00,
2013-01-31 08:42:00,41.5,40.2,30.27,WSW,239,0.0,0.0,95,0.00,CLR,CLR,0.00,WeatherDisplay:10.37,2013-01-31 16:42:00,
2013-01-31 08:47:00,41.7,40.4,30.27,WSW,239,0.0,0.0,95,0.00,CLR,CLR,0.00,WeatherDisplay:10.37,2013-01-31 16:47:00,
2013-01-31 08:52:00,42.2,40.9,30.27,WSW,239,0.0,0.0,95,0.00,CLR,CLR,0.00,WeatherDisplay:10.37,2013-01-31 16:52:00,
2013-01-31 08:57:00,42.7,41.1,30.28,WSW,239,0.0,0.0,94,0.00,CLR,CLR,0.00,WeatherDisplay:10.37,2013-01-31 16:57:00,
2013-01-31 09:03:00,43.2,41.6,30.28,WSW,239,0.0,0.0,94,0.00,CLR,CLR,0.00,WeatherDisplay:10.37,2013-01-31 17:03:00,
2013-01-31 09:08:00,43.8,41.9,30.27,WSW,239,0.0,0.0,93,0.00,CLR,CLR,0.00,WeatherDisplay:10.37,2013-01-31 17:08:00,
2013-01-31 09:13:00,44.4,42.5,30.28,WSW,239,0.0,0.0,93,0.00,CLR,CLR,0.00,WeatherDisplay:10.37,2013-01-31 17:13:00,
2013-01-31 09:18:00,45.1,42.9,30.27,WSW,239,0.0,0.0,92,0.00,CLR,CLR,0.00,WeatherDisplay:10.37,2013-01-31 17:18:00,
2013-01-31 09:24:00,45.7,43.2,30.28,WSW,238,0.0,0.0,91,0.00,CLR,CLR,0.00,WeatherDisplay:10.37,2013-01-31 17:24:00,
2013-01-31 09:29:00,46.4,43.6,30.27,WSW,238,0.0,0.0,90,0.00,CLR,CLR,0.00,WeatherDisplay:10.37,2013-01-31 17:29:00,
2013-01-31 09:34:00,47.1,44.3,30.28,WSW,239,0.0,0.0,90,0.00,CLR,CLR,0.00,WeatherDisplay:10.37,2013-01-31 17:34:00,
2013-01-31 09:39:00,47.9,44.8,30.28,WSW,239,1.1,0.0,89,0.00,CLR,CLR,0.00,WeatherDisplay:10.37,2013-01-31 17:39:00,
2013-01-31 09:44:00,48.7,45.0,30.27,WSW,239,3.5,3.5,87,0.00,CLR,CLR,0.00,WeatherDisplay:10.37,2013-01-31 17:44:00,
2013-01-31 09:49:00,49.5,45.5,30.27,WSW,238,1.1,1.1,86,0.00,CLR,CLR,0.00,WeatherDisplay:10.37,2013-01-31 17:49:00,
2013-01-31 09:54:00,50.4,45.7,30.27,WSW,238,1.1,1.1,84,0.00,CLR,CLR,0.00,WeatherDisplay:10.37,2013-01-31 17:54:00,
2013-01-31 10:00:00,51.4,45.8,30.27,WSW,238,1.1,0.0,81,0.00,CLR,CLR,0.00,WeatherDisplay:10.37,2013-01-31 18:00:00,
2013-01-31 10:05:00,52.4,46.4,30.27,WSW,239,1.1,1.1,80,0.00,CLR,CLR,0.00,WeatherDisplay:10.37,2013-01-31 18:05:00,
2013-01-31 10:10:00,53.5,46.8,30.27,WSW,239,1.1,0.0,78,0.00,CLR,CLR,0.00,WeatherDisplay:10.37,2013-01-31 18:10:00,
2013-01-31 10:15:00,54.7,47.3,30.27,WSW,239,1.1,1.1,76,0.00,CLR,CLR,0.00,WeatherDisplay:10.37,2013-01-31 18:15:00,
2013-01-31 10:21:00,55.5,47.0,30.27,WSW,239,1.1,1.1,73,0.00,CLR,CLR,0.00,WeatherDisplay:10.37,2013-01-31 18:21:00,
2013-01-31 10:26:00,56.4,46.7,30.27,WSW,239,1.1,0.0,70,0.00,CLR,CLR,0.00,WeatherDisplay:10.37,2013-01-31 18:26:00,
2013-01-31 10:31:00,57.2,46.7,30.27,WSW,238,1.1,1.1,68,0.00,CLR,CLR,0.00,WeatherDisplay:10.37,2013-01-31 18:31:00,
2013-01-31 10:36:00,58.2,48.5,30.27,WSW,238,1.1,0.0,70,0.00,CLR,CLR,0.00,WeatherDisplay:10.37,2013-01-31 18:36:00,
2013-01-31 10:41:00,59.3,48.3,30.26,WSW,239,2.3,2.3,67,0.00,CLR,CLR,0.00,WeatherDisplay:10.37,2013-01-31 18:41:00,
2013-01-31 10:46:00,60.1,48.7,30.26,WSW,239,1.0,0.0,66,0.00,CLR,CLR,0.00,WeatherDisplay:10.37,2013-01-31 18:46:00,
2013-01-31 10:52:00,60.9,48.2,30.26,WSW,238,1.1,0.0,63,0.00,CLR,CLR,0.00,WeatherDisplay:10.37,2013-01-31 18:52:00,
2013-01-31 10:57:00,61.6,47.6,30.26,WSW,238,2.3,2.3,60,0.00,CLR,CLR,0.00,WeatherDisplay:10.37,2013-01-31 18:57:00,
2013-01-31 11:02:00,62.3,47.8,30.26,WSW,239,2.3,2.3,59,0.00,CLR,CLR,0.00,WeatherDisplay:10.37,2013-01-31 19:02:00,
2013-01-31 11:07:00,62.9,47.9,30.25,WSW,239,2.3,2.3,58,0.00,CLR,CLR,0.00,WeatherDisplay:10.37,2013-01-31 19:07:00,
2013-01-31 11:12:00,63.6,47.6,30.25,WSW,238,1.1,1.1,56,0.00,CLR,CLR,0.00,WeatherDisplay:10.37,2013-01-31 19:12:00,
2013-01-31 11:17:00,64.3,48.3,30.25,WSW,239,2.3,2.3,56,0.00,CLR,CLR,0.00,WeatherDisplay:10.37,2013-01-31 19:17:00,
2013-01-31 11:23:00,65.0,48.4,30.25,WSW,238,2.3,2.3,55,0.00,CLR,CLR,0.00,WeatherDisplay:10.37,2013-01-31 19:23:00,
2013-01-31 11:28:00,65.7,48.6,30.25,WSW,239,2.3,2.3,54,0.00,CLR,CLR,0.00,WeatherDisplay:10.37,2013-01-31 19:28:00,
2013-01-31 11:33:00,66.4,48.7,30.24,WSW,239,3.0,3.0,53,0.00,CLR,CLR,0.00,WeatherDisplay:10.37,2013-01-31 19:33:00,
2013-01-31 11:38:00,67.2,49.0,30.24,WSW,238,1.1,1.1,52,0.00,CLR,CLR,0.00,WeatherDisplay:10.37,2013-01-31 19:38:00,
2013-01-31 11:43:00,68.0,49.2,30.24,WSW,239,0.0,0.0,51,0.00,CLR,CLR,0.00,WeatherDisplay:10.37,2013-01-31 19:43:00,
2013-01-31 11:48:00,68.9,48.9,30.24,WSW,239,2.3,2.3,49,0.00,CLR,CLR,0.00,WeatherDisplay:10.37,2013-01-31 19:48:00,
2013-01-31 11:54:00,69.7,48.6,30.23,WSW,245,1.1,1.1,47,0.00,CLR,CLR,0.00,WeatherDisplay:10.37,2013-01-31 19:54:00,
2013-01-31 11:59:00,70.4,46.8,30.23,North,351,3.5,3.5,43,0.00,CLR,CLR,0.00,WeatherDisplay:10.37,2013-01-31 19:59:00,
2013-01-31 12:04:00,70.8,49.0,30.22,North,355,1.1,1.1,46,0.00,CLR,CLR,0.00,WeatherDisplay:10.37,2013-01-31 20:04:00,
2013-01-31 12:09:00,71.5,48.4,30.22,WNW,302,1.1,1.1,44,0.00,CLR,CLR,0.00,WeatherDisplay:10.37,2013-01-31 20:09:00,
2013-01-31 12:14:00,72.2,47.8,30.22,North,360,4.6,4.6,42,0.00,CLR,CLR,0.00,WeatherDisplay:10.37,2013-01-31 20:14:00,
2013-01-31 12:19:00,72.7,47.6,30.21,NNE,21,1.1,1.1,41,0.00,CLR,CLR,0.00,WeatherDisplay:10.37,2013-01-31 20:19:00,
2013-01-31 12:24:00,73.4,45.5,30.21,NNE,13,3.5,3.5,37,0.00,CLR,CLR,0.00,WeatherDisplay:10.37,2013-01-31 20:24:00,
2013-01-31 12:29:00,73.8,44.4,30.21,NNE,13,1.1,1.1,35,0.00,CLR,CLR,0.00,WeatherDisplay:10.37,2013-01-31 20:29:00,
2013-01-31 12:34:00,74.3,43.3,30.21,North,355,1.1,2.0,33,0.00,CLR,CLR,0.00,WeatherDisplay:10.37,2013-01-31 20:34:00,
2013-01-31 12:40:00,74.8,42.1,30.20,North,9,2.3,2.3,31,0.00,CLR,CLR,0.00,WeatherDisplay:10.37,2013-01-31 20:40:00,
2013-01-31 12:45:00,74.8,43.0,30.20,North,10,0.0,0.0,32,0.00,CLR,CLR,0.00,WeatherDisplay:10.37,2013-01-31 20:45:00,
2013-01-31 12:50:00,75.2,43.3,30.20,NE,36,2.3,2.3,32,0.00,CLR,CLR,0.00,WeatherDisplay:10.37,2013-01-31 20:50:00,
2013-01-31 12:55:00,75.4,42.7,30.19,NNE,30,1.1,1.1,31,0.00,CLR,CLR,0.00,WeatherDisplay:10.37,2013-01-31 20:55:00,
2013-01-31 13:00:00,75.8,41.3,30.19,NNE,31,0.0,3.0,29,0.00,CLR,CLR,0.00,WeatherDisplay:10.37,2013-01-31 21:00:00,
2013-01-31 13:05:00,76.3,41.7,30.19,NE,34,1.1,1.1,29,0.00,CLR,CLR,0.00,WeatherDisplay:10.37,2013-01-31 21:05:00,
2013-01-31 13:11:00,76.9,42.2,30.19,NNE,32,1.1,1.1,29,0.00,CLR,CLR,0.00,WeatherDisplay:10.37,2013-01-31 21:11:00,
2013-01-31 13:16:00,77.5,41.8,30.18,NE,37,1.1,0.0,28,0.00,CLR,CLR,0.00,WeatherDisplay:10.37,2013-01-31 21:16:00,
2013-01-31 13:21:00,77.9,44.8,30.18,NE,36,1.1,1.1,31,0.00,CLR,CLR,0.00,WeatherDisplay:10.37,2013-01-31 21:21:00,
2013-01-31 13:26:00,78.3,41.6,30.18,NE,34,3.5,3.5,27,0.00,CLR,CLR,0.00,WeatherDisplay:10.37,2013-01-31 21:26:00,
2013-01-31 13:31:00,78.6,41.8,30.17,NW,319,3.5,3.5,27,0.00,CLR,CLR,0.00,WeatherDisplay:10.37,2013-01-31 21:31:00,
2013-01-31 13:36:00,78.6,42.8,30.17,West,265,2.3,2.3,28,0.00,CLR,CLR,0.00,WeatherDisplay:10.37,2013-01-31 21:36:00,
2013-01-31 13:41:00,78.7,39.9,30.17,North,349,3.5,3.5,25,0.00,CLR,CLR,0.00,WeatherDisplay:10.37,2013-01-31 21:41:00,
2013-01-31 13:46:00,79.0,41.2,30.17,ENE,61,2.0,2.0,26,0.00,CLR,CLR,0.00,WeatherDisplay:10.37,2013-01-31 21:46:00,
2013-01-31 13:52:00,78.7,41.9,30.16,SSW,209,2.3,2.3,27,0.00,CLR,CLR,0.00,WeatherDisplay:10.37,2013-01-31 21:52:00,
2013-01-31 13:57:00,78.7,41.9,30.16,West,260,1.1,1.1,27,0.00,CLR,CLR,0.00,WeatherDisplay:10.37,2013-01-31 21:57:00,
2013-01-31 14:02:00,79.0,40.2,30.16,NNW,336,3.5,3.5,25,0.00,CLR,CLR,0.00,WeatherDisplay:10.37,2013-01-31 22:02:00,
2013-01-31 14:07:00,79.1,40.2,30.16,North,11,2.3,2.3,25,0.00,CLR,CLR,0.00,WeatherDisplay:10.37,2013-01-31 22:07:00,
2013-01-31 14:12:00,79.0,42.2,30.16,WSW,249,3.5,3.5,27,0.00,CLR,CLR,0.00,WeatherDisplay:10.37,2013-01-31 22:12:00,
2013-01-31 14:17:00,79.2,41.3,30.16,NNW,345,3.5,3.5,26,0.00,CLR,CLR,0.00,WeatherDisplay:10.37,2013-01-31 22:17:00,
2013-01-31 14:23:00,79.7,42.8,30.16,WNW,286,3.5,3.5,27,0.00,CLR,CLR,0.00,WeatherDisplay:10.37,2013-01-31 22:23:00,
2013-01-31 14:28:00,79.6,41.7,30.16,SW,234,3.5,3.5,26,0.00,CLR,CLR,0.00,WeatherDisplay:10.37,2013-01-31 22:28:00,
2013-01-31 14:33:00,79.3,41.4,30.16,ESE,109,2.3,2.3,26,0.00,CLR,CLR,0.00,WeatherDisplay:10.37,2013-01-31 22:33:00,
2013-01-31 14:38:00,79.5,42.6,30.15,WNW,290,3.5,3.5,27,0.00,CLR,CLR,0.00,WeatherDisplay:10.37,2013-01-31 22:38:00,
2013-01-31 14:43:00,79.5,42.6,30.15,WNW,283,3.5,3.5,27,0.00,CLR,CLR,0.00,WeatherDisplay:10.37,2013-01-31 22:43:00,
2013-01-31 14:48:00,79.5,42.6,30.16,WNW,303,2.3,2.3,27,0.00,CLR,CLR,0.00,WeatherDisplay:10.37,2013-01-31 22:48:00,
2013-01-31 14:53:00,79.2,42.3,30.15,NE,38,1.1,1.1,27,0.00,CLR,CLR,0.00,WeatherDisplay:10.37,2013-01-31 22:53:00,
2013-01-31 14:59:00,79.5,42.6,30.15,WNW,286,2.3,2.3,27,0.00,CLR,CLR,0.00,WeatherDisplay:10.37,2013-01-31 22:59:00,
2013-01-31 15:04:00,79.5,41.6,30.15,NE,51,2.3,2.3,26,0.00,CLR,CLR,0.00,WeatherDisplay:10.37,2013-01-31 23:04:00,
2013-01-31 15:09:00,79.1,41.3,30.15,ENE,60,3.5,3.5,26,0.00,CLR,CLR,0.00,WeatherDisplay:10.37,2013-01-31 23:09:00,
2013-01-31 15:14:00,79.0,44.0,30.15,WNW,298,2.3,2.3,29,0.00,CLR,CLR,0.00,WeatherDisplay:10.37,2013-01-31 23:14:00,
2013-01-31 15:19:00,79.4,43.4,30.15,WNW,284,3.5,3.5,28,0.00,CLR,CLR,0.00,WeatherDisplay:10.37,2013-01-31 23:19:00,
2013-01-31 15:24:00,79.5,44.5,30.15,WSW,252,3.5,3.5,29,0.00,CLR,CLR,0.00,WeatherDisplay:10.37,2013-01-31 23:24:00,
2013-01-31 15:30:00,79.3,44.3,30.15,West,261,2.3,2.3,29,0.00,CLR,CLR,0.00,WeatherDisplay:10.37,2013-01-31 23:30:00,
2013-01-31 15:35:00,79.5,45.3,30.15,West,260,2.3,2.3,30,0.00,CLR,CLR,0.00,WeatherDisplay:10.37,2013-01-31 23:35:00,
2013-01-31 15:40:00,79.7,45.5,30.15,West,260,1.1,1.1,30,0.00,CLR,CLR,0.00,WeatherDisplay:10.37,2013-01-31 23:40:00,
2013-01-31 15:45:00,79.7,44.6,30.15,West,260,1.1,0.0,29,0.00,CLR,CLR,0.00,WeatherDisplay:10.37,2013-01-31 23:45:00,
2013-01-31 15:51:00,79.6,46.3,30.15,West,260,1.1,1.1,31,0.00,CLR,CLR,0.00,WeatherDisplay:10.37,2013-01-31 23:51:00,
2013-01-31 15:56:00,79.0,44.0,30.15,West,260,3.0,3.0,29,0.00,CLR,CLR,0.00,WeatherDisplay:10.37,2013-01-31 23:56:00,
2013-01-31 16:01:00,78.5,45.3,30.15,West,260,1.1,0.0,31,0.00,CLR,CLR,0.00,WeatherDisplay:10.37,2013-02-01 00:01:00,
2013-01-31 16:06:00,78.5,44.5,30.15,West,260,1.1,0.0,30,0.00,CLR,CLR,0.00,WeatherDisplay:10.37,2013-02-01 00:06:00,
2013-01-31 16:11:00,78.6,46.3,30.15,West,260,1.1,0.0,32,0.00,CLR,CLR,0.00,WeatherDisplay:10.37,2013-02-01 00:11:00,
2013-01-31 16:17:00,78.5,42.7,30.15,West,260,1.1,1.1,28,0.00,CLR,CLR,0.00,WeatherDisplay:10.37,2013-02-01 00:17:00,
2013-01-31 16:22:00,78.3,43.4,30.15,West,260,1.1,1.1,29,0.00,CLR,CLR,0.00,WeatherDisplay:10.37,2013-02-01 00:22:00,
2013-01-31 16:27:00,78.1,45.0,30.15,West,260,0.0,0.0,31,0.00,CLR,CLR,0.00,WeatherDisplay:10.37,2013-02-01 00:27:00,
2013-01-31 16:32:00,78.2,45.1,30.15,West,260,0.0,0.0,31,0.00,CLR,CLR,0.00,WeatherDisplay:10.37,2013-02-01 00:32:00,
2013-01-31 16:37:00,78.0,43.2,30.15,West,260,0.0,0.0,29,0.00,CLR,CLR,0.00,WeatherDisplay:10.37,2013-02-01 00:37:00,
2013-01-31 16:42:00,77.0,44.0,30.15,West,260,0.0,0.0,31,0.00,CLR,CLR,0.00,WeatherDisplay:10.37,2013-02-01 00:42:00,
2013-01-31 16:48:00,75.1,44.0,30.15,West,260,0.0,0.0,33,0.00,CLR,CLR,0.00,WeatherDisplay:10.37,2013-02-01 00:48:00,
2013-01-31 16:53:00,73.1,43.1,30.15,West,260,0.0,0.0,34,0.00,CLR,CLR,0.00,WeatherDisplay:10.37,2013-02-01 00:53:00,
2013-01-31 16:58:00,70.6,43.7,30.16,West,260,0.0,0.0,38,0.00,CLR,CLR,0.00,WeatherDisplay:10.37,2013-02-01 00:58:00,
2013-01-31 17:03:00,68.7,41.4,30.16,West,260,0.0,0.0,37,0.00,CLR,CLR,0.00,WeatherDisplay:10.37,2013-02-01 01:03:00,
2013-01-31 17:08:00,67.7,45.0,30.15,West,260,0.0,0.0,44,0.00,CLR,CLR,0.00,WeatherDisplay:10.37,2013-02-01 01:08:00,
2013-01-31 17:14:00,66.8,44.8,30.16,West,260,0.0,0.0,45,0.00,CLR,CLR,0.00,WeatherDisplay:10.37,2013-02-01 01:14:00,
2013-01-31 17:19:00,65.8,46.1,30.16,West,260,0.0,0.0,49,0.00,CLR,CLR,0.00,WeatherDisplay:10.37,2013-02-01 01:19:00,
2013-01-31 17:24:00,64.1,45.1,30.16,West,260,1.1,0.0,50,0.00,CLR,CLR,0.00,WeatherDisplay:10.37,2013-02-01 01:24:00,
2013-01-31 17:29:00,62.9,45.5,30.16,West,260,0.0,0.0,53,0.00,CLR,CLR,0.00,WeatherDisplay:10.37,2013-02-01 01:29:00,
2013-01-31 17:35:00,61.7,45.4,30.16,West,260,0.0,0.0,55,0.00,CLR,CLR,0.00,WeatherDisplay:10.37,2013-02-01 01:35:00,
2013-01-31 17:40:00,60.7,44.9,30.16,West,260,0.0,0.0,56,0.00,CLR,CLR,0.00,WeatherDisplay:10.37,2013-02-01 01:40:00,
2013-01-31 17:45:00,60.0,44.7,30.16,West,260,1.1,0.0,57,0.00,CLR,CLR,0.00,WeatherDisplay:10.37,2013-02-01 01:45:00,
2013-01-31 17:50:00,59.4,44.2,30.16,West,260,0.0,0.0,57,0.00,CLR,CLR,0.00,WeatherDisplay:10.37,2013-02-01 01:50:00,
2013-01-31 17:55:00,59.0,44.2,30.16,West,260,0.0,0.0,58,0.00,CLR,CLR,0.00,WeatherDisplay:10.37,2013-02-01 01:55:00,
2013-01-31 18:01:00,58.5,44.2,30.17,West,260,0.0,0.0,59,0.00,CLR,CLR,0.00,WeatherDisplay:10.37,2013-02-01 02:01:00,
2013-01-31 18:06:00,57.4,44.5,30.17,West,260,0.0,0.0,62,0.00,CLR,CLR,0.00,WeatherDisplay:10.37,2013-02-01 02:06:00,
2013-01-31 18:11:00,56.8,43.9,30.17,West,260,0.0,0.0,62,0.00,CLR,CLR,0.00,WeatherDisplay:10.37,2013-02-01 02:11:00,
2013-01-31 18:16:00,56.2,43.8,30.17,West,260,0.0,0.0,63,0.00,CLR,CLR,0.00,WeatherDisplay:10.37,2013-02-01 02:16:00,
2013-01-31 18:21:00,55.4,43.4,30.17,West,260,0.0,0.0,64,0.00,CLR,CLR,0.00,WeatherDisplay:10.37,2013-02-01 02:21:00,
2013-01-31 18:26:00,54.6,43.1,30.17,West,260,0.0,0.0,65,0.00,CLR,CLR,0.00,WeatherDisplay:10.37,2013-02-01 02:26:00,
2013-01-31 18:32:00,54.1,43.4,30.17,West,260,0.0,0.0,67,0.00,CLR,CLR,0.00,WeatherDisplay:10.37,2013-02-01 02:32:00,
2013-01-31 18:37:00,53.6,43.3,30.18,West,260,0.0,0.0,68,0.00,CLR,CLR,0.00,WeatherDisplay:10.37,2013-02-01 02:37:00,
2013-01-31 18:42:00,53.1,43.2,30.18,West,260,1.1,0.0,69,0.00,CLR,CLR,0.00,WeatherDisplay:10.37,2013-02-01 02:42:00,
2013-01-31 18:48:00,52.8,43.3,30.18,West,260,0.0,0.0,70,0.00,CLR,CLR,0.00,WeatherDisplay:10.37,2013-02-01 02:48:00,
2013-01-31 18:53:00,52.3,42.8,30.17,West,260,0.0,0.0,70,0.00,CLR,CLR,0.00,WeatherDisplay:10.37,2013-02-01 02:53:00,
2013-01-31 18:58:00,51.8,43.1,30.17,West,260,0.0,0.0,72,0.00,CLR,CLR,0.00,WeatherDisplay:10.37,2013-02-01 02:58:00,
2013-01-31 19:03:00,51.4,43.4,30.17,West,260,0.0,0.0,74,0.00,CLR,CLR,0.00,WeatherDisplay:10.37,2013-02-01 03:03:00,
2013-01-31 19:09:00,51.1,42.7,30.17,West,260,0.0,0.0,73,0.00,CLR,CLR,0.00,WeatherDisplay:10.37,2013-02-01 03:09:00,
2013-01-31 19:15:00,50.5,42.5,30.17,West,260,0.0,0.0,74,0.00,CLR,CLR,0.00,WeatherDisplay:10.37,2013-02-01 03:15:00,
2013-01-31 19:21:00,50.3,42.7,30.18,West,260,0.0,0.0,75,0.00,CLR,CLR,0.00,WeatherDisplay:10.37,2013-02-01 03:21:00,
2013-01-31 19:26:00,50.0,42.7,30.18,West,260,0.0,0.0,76,0.00,CLR,CLR,0.00,WeatherDisplay:10.37,2013-02-01 03:26:00,
2013-01-31 19:31:00,49.7,42.4,30.18,West,260,0.0,0.0,76,0.00,CLR,CLR,0.00,WeatherDisplay:10.37,2013-02-01 03:31:00,
2013-01-31 19:36:00,49.3,42.4,30.18,West,260,0.0,0.0,77,0.00,CLR,CLR,0.00,WeatherDisplay:10.37,2013-02-01 03:36:00,
2013-01-31 19:41:00,49.1,42.5,30.18,West,260,0.0,0.0,78,0.00,CLR,CLR,0.00,WeatherDisplay:10.37,2013-02-01 03:41:00,
2013-01-31 19:46:00,48.6,42.0,30.19,West,260,0.0,0.0,78,0.00,CLR,CLR,0.00,WeatherDisplay:10.37,2013-02-01 03:46:00,
2013-01-31 19:52:00,48.3,42.4,30.19,West,260,0.0,0.0,80,0.00,CLR,CLR,0.00,WeatherDisplay:10.37,2013-02-01 03:52:00,
2013-01-31 19:58:00,48.0,42.1,30.19,West,260,0.0,0.0,80,0.00,CLR,CLR,0.00,WeatherDisplay:10.37,2013-02-01 03:58:00,
2013-01-31 20:03:00,47.6,41.7,30.19,West,260,0.0,0.0,80,0.00,CLR,CLR,0.00,WeatherDisplay:10.37,2013-02-01 04:03:00,
2013-01-31 20:09:00,47.3,41.8,30.19,West,260,0.0,0.0,81,0.00,CLR,CLR,0.00,WeatherDisplay:10.37,2013-02-01 04:09:00,
2013-01-31 20:14:00,47.1,41.9,30.19,West,260,0.0,0.0,82,0.00,CLR,CLR,0.00,WeatherDisplay:10.37,2013-02-01 04:14:00,
2013-01-31 20:19:00,47.0,41.8,30.19,West,260,0.0,0.0,82,0.00,CLR,CLR,0.00,WeatherDisplay:10.37,2013-02-01 04:19:00,
2013-01-31 20:26:00,46.5,41.6,30.19,West,260,0.0,0.0,83,0.00,CLR,CLR,0.00,WeatherDisplay:10.37,2013-02-01 04:26:00,
2013-01-31 20:31:00,46.3,41.4,30.19,West,260,0.0,0.0,83,0.00,CLR,CLR,0.00,WeatherDisplay:10.37,2013-02-01 04:31:00,
2013-01-31 20:36:00,46.0,41.4,30.19,West,260,0.0,0.0,84,0.00,CLR,CLR,0.00,WeatherDisplay:10.37,2013-02-01 04:36:00,
2013-01-31 20:41:00,45.9,41.0,30.19,West,260,0.0,0.0,83,0.00,CLR,CLR,0.00,WeatherDisplay:10.37,2013-02-01 04:41:00,
2013-01-31 20:46:00,45.6,41.0,30.19,West,260,0.0,0.0,84,0.00,CLR,CLR,0.00,WeatherDisplay:10.37,2013-02-01 04:46:00,
2013-01-31 20:52:00,45.3,41.4,30.19,West,260,0.0,0.0,86,0.00,CLR,CLR,0.00,WeatherDisplay:10.37,2013-02-01 04:52:00,
2013-01-31 20:57:00,45.5,41.9,30.19,West,260,1.1,0.0,87,0.00,CLR,CLR,0.00,WeatherDisplay:10.37,2013-02-01 04:57:00,
2013-01-31 21:00:00,45.8,41.9,30.19,West,260,0.0,0.0,86,0.00,CLR,CLR,0.00,WeatherDisplay:10.37,2013-02-01 05:00:00,
2013-01-31 21:01:00,45.8,41.9,30.19,West,260,0.0,0.0,86,0.00,CLR,CLR,0.00,WeatherDisplay:10.37,2013-02-01 05:01:00,
2013-01-31 21:03:00,45.8,41.5,30.19,West,260,0.0,0.0,85,0.00,CLR,CLR,0.00,WeatherDisplay:10.37,2013-02-01 05:03:00,
2013-01-31 21:08:00,45.6,41.0,30.19,West,260,0.0,0.0,84,0.00,CLR,CLR,0.00,WeatherDisplay:10.37,2013-02-01 05:08:00,
2013-01-31 21:13:00,45.4,41.2,30.19,West,260,0.0,0.0,85,0.00,CLR,CLR,0.00,WeatherDisplay:10.37,2013-02-01 05:13:00,
2013-01-31 21:18:00,45.1,40.6,30.19,West,260,0.0,0.0,84,0.00,CLR,CLR,0.00,WeatherDisplay:10.37,2013-02-01 05:18:00,
2013-01-31 21:23:00,44.8,40.9,30.19,West,260,0.0,0.0,86,0.00,CLR,CLR,0.00,WeatherDisplay:10.37,2013-02-01 05:23:00,
2013-01-31 21:29:00,44.6,40.4,30.19,West,260,0.0,0.0,85,0.00,CLR,CLR,0.00,WeatherDisplay:10.37,2013-02-01 05:29:00,
2013-01-31 21:34:00,44.4,40.5,30.19,West,260,0.0,0.0,86,0.00,CLR,CLR,0.00,WeatherDisplay:10.37,2013-02-01 05:34:00,
2013-01-31 21:39:00,44.1,40.5,30.19,West,260,0.0,0.0,87,0.00,CLR,CLR,0.00,WeatherDisplay:10.37,2013-02-01 05:39:00,
2013-01-31 21:44:00,43.9,40.3,30.19,West,260,0.0,0.0,87,0.00,CLR,CLR,0.00,WeatherDisplay:10.37,2013-02-01 05:44:00,
2013-01-31 21:50:00,43.8,40.5,30.19,West,260,0.0,0.0,88,0.00,CLR,CLR,0.00,WeatherDisplay:10.37,2013-02-01 05:50:00,
2013-01-31 21:55:00,43.6,40.0,30.19,West,260,0.0,0.0,87,0.00,CLR,CLR,0.00,WeatherDisplay:10.37,2013-02-01 05:55:00,
2013-01-31 22:00:00,43.4,40.1,30.19,West,260,0.0,0.0,88,0.00,CLR,CLR,0.00,WeatherDisplay:10.37,2013-02-01 06:00:00,
2013-01-31 22:05:00,43.3,40.0,30.18,West,260,0.0,0.0,88,0.00,CLR,CLR,0.00,WeatherDisplay:10.37,2013-02-01 06:05:00,
2013-01-31 22:11:00,43.1,40.1,30.18,West,260,0.0,0.0,89,0.00,CLR,CLR,0.00,WeatherDisplay:10.37,2013-02-01 06:11:00,
2013-01-31 22:16:00,43.0,39.7,30.18,West,260,0.0,0.0,88,0.00,CLR,CLR,0.00,WeatherDisplay:10.37,2013-02-01 06:16:00,
2013-01-31 22:21:00,42.8,39.5,30.19,West,260,0.0,0.0,88,0.00,CLR,CLR,0.00,WeatherDisplay:10.37,2013-02-01 06:21:00,
2013-01-31 22:26:00,42.4,39.4,30.18,West,260,0.0,0.0,89,0.00,CLR,CLR,0.00,WeatherDisplay:10.37,2013-02-01 06:26:00,
2013-01-31 22:31:00,42.3,39.6,30.18,West,260,0.0,0.0,90,0.00,CLR,CLR,0.00,WeatherDisplay:10.37,2013-02-01 06:31:00,
2013-01-31 22:36:00,42.1,39.4,30.19,West,260,0.0,0.0,90,0.00,CLR,CLR,0.00,WeatherDisplay:10.37,2013-02-01 06:36:00,
2013-01-31 22:41:00,42.0,39.3,30.19,West,260,0.0,0.0,90,0.00,CLR,CLR,0.00,WeatherDisplay:10.37,2013-02-01 06:41:00,
2013-01-31 22:46:00,41.9,39.2,30.19,West,260,0.0,0.0,90,0.00,CLR,CLR,0.00,WeatherDisplay:10.37,2013-02-01 06:46:00,
2013-01-31 22:51:00,41.8,39.4,30.18,West,260,0.0,0.0,91,0.00,CLR,CLR,0.00,WeatherDisplay:10.37,2013-02-01 06:51:00,
2013-01-31 22:57:00,41.8,39.4,30.19,West,260,0.0,0.0,91,0.00,CLR,CLR,0.00,WeatherDisplay:10.37,2013-02-01 06:57:00,
2013-01-31 23:02:00,41.6,38.9,30.19,West,260,0.0,0.0,90,0.00,CLR,CLR,0.00,WeatherDisplay:10.37,2013-02-01 07:02:00,
2013-01-31 23:07:00,41.3,38.9,30.18,West,260,0.0,0.0,91,0.00,CLR,CLR,0.00,WeatherDisplay:10.37,2013-02-01 07:07:00,
2013-01-31 23:12:00,41.2,38.8,30.18,West,260,0.0,0.0,91,0.00,CLR,CLR,0.00,WeatherDisplay:10.37,2013-02-01 07:12:00,
2013-01-31 23:17:00,41.0,38.3,30.19,West,260,0.0,0.0,90,0.00,CLR,CLR,0.00,WeatherDisplay:10.37,2013-02-01 07:17:00,
2013-01-31 23:23:00,40.8,38.4,30.19,West,260,0.0,0.0,91,0.00,CLR,CLR,0.00,WeatherDisplay:10.37,2013-02-01 07:23:00,
2013-01-31 23:28:00,40.7,38.3,30.19,West,260,0.0,0.0,91,0.00,CLR,CLR,0.00,WeatherDisplay:10.37,2013-02-01 07:28:00,
2013-01-31 23:33:00,40.5,38.1,30.19,West,260,0.0,0.0,91,0.00,CLR,CLR,0.00,WeatherDisplay:10.37,2013-02-01 07:33:00,
2013-01-31 23:38:00,40.4,38.3,30.19,West,260,0.0,0.0,92,0.00,CLR,CLR,0.00,WeatherDisplay:10.37,2013-02-01 07:38:00,
2013-01-31 23:44:00,40.3,38.2,30.18,West,260,0.0,0.0,92,0.00,CLR,CLR,0.00,WeatherDisplay:10.37,2013-02-01 07:44:00,
2013-01-31 23:49:00,40.3,38.2,30.19,West,260,0.0,0.0,92,0.00,CLR,CLR,0.00,WeatherDisplay:10.37,2013-02-01 07:49:00,
2013-01-31 23:54:00,40.2,38.1,30.18,West,260,0.0,0.0,92,0.00,CLR,CLR,0.00,WeatherDisplay:10.37,2013-02-01 07:54:00,
2013-01-31 23:59:00,40.1,38.0,30.18,West,260,0.0,0.0,92,0.00,CLR,CLR,0.00,WeatherDisplay:10.37,2013-02-01 07:59:00,